sensor_id;sensor_type;location;lat;lon;timestamp;P1;durP1;ratioP1;P2;durP2;ratioP2
57593;SDS011;43423;46.510;6.686;2023-04-15T00:00:36;4.45;;;1.20;;
57593;SDS011;43423;46.510;6.686;2023-04-15T00:03:13;2.65;;;1.38;;
57593;SDS011;43423;46.510;6.686;2023-04-15T00:05:38;3.10;;;1.40;;
57593;SDS011;43423;46.510;6.686;2023-04-15T00:08:04;2.22;;;1.48;;
57593;SDS011;43423;46.510;6.686;2023-04-15T00:10:30;2.45;;;1.42;;
57593;SDS011;43423;46.510;6.686;2023-04-15T00:12:56;4.03;;;1.73;;
57593;SDS011;43423;46.510;6.686;2023-04-15T00:15:21;3.00;;;1.30;;
57593;SDS011;43423;46.510;6.686;2023-04-15T00:17:49;5.50;;;1.60;;
57593;SDS011;43423;46.510;6.686;2023-04-15T00:20:15;2.38;;;1.35;;
57593;SDS011;43423;46.510;6.686;2023-04-15T00:22:41;5.57;;;1.95;;
57593;SDS011;43423;46.510;6.686;2023-04-15T00:25:07;5.05;;;1.48;;
57593;SDS011;43423;46.510;6.686;2023-04-15T00:27:33;6.47;;;1.63;;
57593;SDS011;43423;46.510;6.686;2023-04-15T00:29:59;2.75;;;1.60;;
57593;SDS011;43423;46.510;6.686;2023-04-15T00:32:25;3.38;;;1.70;;
57593;SDS011;43423;46.510;6.686;2023-04-15T00:34:50;3.35;;;1.60;;
57593;SDS011;43423;46.510;6.686;2023-04-15T00:37:16;2.90;;;1.75;;
57593;SDS011;43423;46.510;6.686;2023-04-15T00:39:42;3.30;;;1.60;;
57593;SDS011;43423;46.510;6.686;2023-04-15T00:42:08;3.40;;;1.67;;
57593;SDS011;43423;46.510;6.686;2023-04-15T00:44:34;2.97;;;1.88;;
57593;SDS011;43423;46.510;6.686;2023-04-15T00:47:00;5.90;;;1.98;;
57593;SDS011;43423;46.510;6.686;2023-04-15T00:49:26;4.47;;;2.28;;
57593;SDS011;43423;46.510;6.686;2023-04-15T00:51:53;3.58;;;1.95;;
57593;SDS011;43423;46.510;6.686;2023-04-15T00:54:18;3.30;;;1.92;;
57593;SDS011;43423;46.510;6.686;2023-04-15T00:56:44;5.80;;;1.98;;
57593;SDS011;43423;46.510;6.686;2023-04-15T00:59:10;4.68;;;2.08;;
57593;SDS011;43423;46.510;6.686;2023-04-15T01:01:36;4.68;;;2.00;;
57593;SDS011;43423;46.510;6.686;2023-04-15T01:04:02;6.43;;;2.40;;
57593;SDS011;43423;46.510;6.686;2023-04-15T01:06:29;4.43;;;2.72;;
57593;SDS011;43423;46.510;6.686;2023-04-15T01:08:56;4.93;;;1.98;;
57593;SDS011;43423;46.510;6.686;2023-04-15T01:11:23;8.32;;;2.47;;
57593;SDS011;43423;46.510;6.686;2023-04-15T01:13:49;4.75;;;2.35;;
57593;SDS011;43423;46.510;6.686;2023-04-15T01:16:16;6.10;;;2.20;;
57593;SDS011;43423;46.510;6.686;2023-04-15T01:18:43;3.88;;;1.73;;
57593;SDS011;43423;46.510;6.686;2023-04-15T01:21:09;6.68;;;1.58;;
57593;SDS011;43423;46.510;6.686;2023-04-15T01:23:36;4.35;;;2.00;;
57593;SDS011;43423;46.510;6.686;2023-04-15T01:26:03;6.47;;;1.80;;
57593;SDS011;43423;46.510;6.686;2023-04-15T01:28:29;2.53;;;1.83;;
57593;SDS011;43423;46.510;6.686;2023-04-15T01:31:05;4.50;;;1.90;;
57593;SDS011;43423;46.510;6.686;2023-04-15T01:33:32;3.50;;;1.80;;
57593;SDS011;43423;46.510;6.686;2023-04-15T01:35:57;7.97;;;2.03;;
57593;SDS011;43423;46.510;6.686;2023-04-15T01:38:24;2.47;;;1.83;;
57593;SDS011;43423;46.510;6.686;2023-04-15T01:40:51;4.05;;;1.92;;
57593;SDS011;43423;46.510;6.686;2023-04-15T01:43:17;4.63;;;1.70;;
57593;SDS011;43423;46.510;6.686;2023-04-15T01:45:43;2.35;;;1.50;;
57593;SDS011;43423;46.510;6.686;2023-04-15T01:48:08;6.65;;;1.33;;
57593;SDS011;43423;46.510;6.686;2023-04-15T01:50:34;3.55;;;1.58;;
57593;SDS011;43423;46.510;6.686;2023-04-15T01:53:00;4.03;;;1.23;;
57593;SDS011;43423;46.510;6.686;2023-04-15T01:55:26;2.50;;;1.13;;
57593;SDS011;43423;46.510;6.686;2023-04-15T01:57:51;1.50;;;1.20;;
57593;SDS011;43423;46.510;6.686;2023-04-15T02:00:17;5.70;;;2.00;;
57593;SDS011;43423;46.510;6.686;2023-04-15T02:02:42;3.00;;;1.30;;
57593;SDS011;43423;46.510;6.686;2023-04-15T02:05:09;1.92;;;1.52;;
57593;SDS011;43423;46.510;6.686;2023-04-15T02:07:35;3.67;;;1.30;;
57593;SDS011;43423;46.510;6.686;2023-04-15T02:10:01;4.05;;;1.30;;
57593;SDS011;43423;46.510;6.686;2023-04-15T02:12:28;2.63;;;0.93;;
57593;SDS011;43423;46.510;6.686;2023-04-15T02:14:53;2.30;;;1.20;;
57593;SDS011;43423;46.510;6.686;2023-04-15T02:17:19;1.85;;;1.00;;
57593;SDS011;43423;46.510;6.686;2023-04-15T02:19:45;1.20;;;1.00;;
57593;SDS011;43423;46.510;6.686;2023-04-15T02:22:10;0.77;;;0.75;;
57593;SDS011;43423;46.510;6.686;2023-04-15T02:24:42;1.48;;;0.98;;
57593;SDS011;43423;46.510;6.686;2023-04-15T02:27:08;2.03;;;0.90;;
57593;SDS011;43423;46.510;6.686;2023-04-15T02:29:33;2.45;;;1.00;;
57593;SDS011;43423;46.510;6.686;2023-04-15T02:31:59;1.65;;;0.82;;
57593;SDS011;43423;46.510;6.686;2023-04-15T02:34:25;1.13;;;1.02;;
57593;SDS011;43423;46.510;6.686;2023-04-15T02:36:51;1.05;;;0.88;;
57593;SDS011;43423;46.510;6.686;2023-04-15T02:39:21;1.60;;;0.70;;
57593;SDS011;43423;46.510;6.686;2023-04-15T02:41:47;0.90;;;0.60;;
57593;SDS011;43423;46.510;6.686;2023-04-15T02:44:16;0.95;;;0.82;;
57593;SDS011;43423;46.510;6.686;2023-04-15T02:46:44;2.15;;;0.80;;
57593;SDS011;43423;46.510;6.686;2023-04-15T02:49:15;0.70;;;0.70;;
57593;SDS011;43423;46.510;6.686;2023-04-15T02:51:40;0.80;;;0.80;;
57593;SDS011;43423;46.510;6.686;2023-04-15T02:54:06;0.75;;;0.63;;
57593;SDS011;43423;46.510;6.686;2023-04-15T02:56:32;1.08;;;0.75;;
57593;SDS011;43423;46.510;6.686;2023-04-15T02:58:58;0.70;;;0.70;;
57593;SDS011;43423;46.510;6.686;2023-04-15T03:01:24;1.50;;;0.73;;
57593;SDS011;43423;46.510;6.686;2023-04-15T03:03:50;1.58;;;0.70;;
57593;SDS011;43423;46.510;6.686;2023-04-15T03:06:15;0.93;;;0.85;;
57593;SDS011;43423;46.510;6.686;2023-04-15T03:08:41;1.02;;;0.60;;
57593;SDS011;43423;46.510;6.686;2023-04-15T03:11:06;0.82;;;0.80;;
57593;SDS011;43423;46.510;6.686;2023-04-15T03:13:32;2.63;;;0.98;;
57593;SDS011;43423;46.510;6.686;2023-04-15T03:15:58;3.22;;;1.05;;
57593;SDS011;43423;46.510;6.686;2023-04-15T03:18:23;1.73;;;1.10;;
57593;SDS011;43423;46.510;6.686;2023-04-15T03:20:49;2.83;;;1.30;;
57593;SDS011;43423;46.510;6.686;2023-04-15T03:23:15;2.17;;;1.60;;
57593;SDS011;43423;46.510;6.686;2023-04-15T03:25:40;3.20;;;1.65;;
57593;SDS011;43423;46.510;6.686;2023-04-15T03:28:06;2.78;;;1.67;;
57593;SDS011;43423;46.510;6.686;2023-04-15T03:30:31;3.50;;;1.58;;
57593;SDS011;43423;46.510;6.686;2023-04-15T03:32:57;4.05;;;1.63;;
57593;SDS011;43423;46.510;6.686;2023-04-15T03:35:22;5.22;;;2.13;;
57593;SDS011;43423;46.510;6.686;2023-04-15T03:37:48;1.95;;;1.50;;
57593;SDS011;43423;46.510;6.686;2023-04-15T03:40:13;3.53;;;1.73;;
57593;SDS011;43423;46.510;6.686;2023-04-15T03:42:40;4.72;;;1.38;;
57593;SDS011;43423;46.510;6.686;2023-04-15T03:45:05;2.22;;;1.45;;
57593;SDS011;43423;46.510;6.686;2023-04-15T03:47:32;2.05;;;1.42;;
57593;SDS011;43423;46.510;6.686;2023-04-15T03:49:57;3.15;;;1.42;;
57593;SDS011;43423;46.510;6.686;2023-04-15T03:52:23;1.98;;;1.63;;
57593;SDS011;43423;46.510;6.686;2023-04-15T03:54:48;4.18;;;1.50;;
57593;SDS011;43423;46.510;6.686;2023-04-15T03:57:14;3.08;;;1.45;;
57593;SDS011;43423;46.510;6.686;2023-04-15T03:59:39;3.72;;;1.70;;
57593;SDS011;43423;46.510;6.686;2023-04-15T04:02:05;3.10;;;1.58;;
57593;SDS011;43423;46.510;6.686;2023-04-15T04:04:30;1.75;;;1.23;;
57593;SDS011;43423;46.510;6.686;2023-04-15T04:06:56;2.80;;;1.70;;
57593;SDS011;43423;46.510;6.686;2023-04-15T04:09:22;4.03;;;2.13;;
57593;SDS011;43423;46.510;6.686;2023-04-15T04:11:47;5.20;;;1.73;;
57593;SDS011;43423;46.510;6.686;2023-04-15T04:14:13;4.25;;;1.80;;
57593;SDS011;43423;46.510;6.686;2023-04-15T04:16:38;2.35;;;1.30;;
57593;SDS011;43423;46.510;6.686;2023-04-15T04:19:04;2.38;;;1.48;;
57593;SDS011;43423;46.510;6.686;2023-04-15T04:21:29;2.83;;;1.27;;
57593;SDS011;43423;46.510;6.686;2023-04-15T04:23:55;2.53;;;1.50;;
57593;SDS011;43423;46.510;6.686;2023-04-15T04:26:21;9.00;;;1.40;;
57593;SDS011;43423;46.510;6.686;2023-04-15T04:28:46;3.47;;;1.55;;
57593;SDS011;43423;46.510;6.686;2023-04-15T04:31:12;3.45;;;2.13;;
57593;SDS011;43423;46.510;6.686;2023-04-15T04:33:38;3.08;;;1.65;;
57593;SDS011;43423;46.510;6.686;2023-04-15T04:36:04;3.20;;;1.40;;
57593;SDS011;43423;46.510;6.686;2023-04-15T04:38:29;2.38;;;1.70;;
57593;SDS011;43423;46.510;6.686;2023-04-15T04:40:55;2.80;;;1.60;;
57593;SDS011;43423;46.510;6.686;2023-04-15T04:43:20;2.85;;;1.70;;
57593;SDS011;43423;46.510;6.686;2023-04-15T04:45:46;4.75;;;1.50;;
57593;SDS011;43423;46.510;6.686;2023-04-15T04:48:11;3.33;;;1.88;;
57593;SDS011;43423;46.510;6.686;2023-04-15T04:50:37;4.25;;;1.85;;
57593;SDS011;43423;46.510;6.686;2023-04-15T04:53:03;2.50;;;1.50;;
57593;SDS011;43423;46.510;6.686;2023-04-15T04:55:28;7.43;;;1.90;;
57593;SDS011;43423;46.510;6.686;2023-04-15T04:57:54;3.25;;;2.22;;
57593;SDS011;43423;46.510;6.686;2023-04-15T05:00:20;4.20;;;2.90;;
57593;SDS011;43423;46.510;6.686;2023-04-15T05:02:45;4.53;;;2.03;;
57593;SDS011;43423;46.510;6.686;2023-04-15T05:05:11;4.47;;;2.28;;
57593;SDS011;43423;46.510;6.686;2023-04-15T05:07:37;2.83;;;2.20;;
57593;SDS011;43423;46.510;6.686;2023-04-15T05:10:04;2.45;;;1.80;;
57593;SDS011;43423;46.510;6.686;2023-04-15T05:12:30;4.75;;;1.92;;
57593;SDS011;43423;46.510;6.686;2023-04-15T05:14:56;2.97;;;2.05;;
57593;SDS011;43423;46.510;6.686;2023-04-15T05:17:22;2.75;;;2.40;;
57593;SDS011;43423;46.510;6.686;2023-04-15T05:19:47;3.88;;;2.53;;
57593;SDS011;43423;46.510;6.686;2023-04-15T05:22:13;5.43;;;2.25;;
57593;SDS011;43423;46.510;6.686;2023-04-15T05:24:38;2.42;;;1.65;;
57593;SDS011;43423;46.510;6.686;2023-04-15T05:27:04;7.60;;;2.22;;
57593;SDS011;43423;46.510;6.686;2023-04-15T05:29:30;3.05;;;2.15;;
57593;SDS011;43423;46.510;6.686;2023-04-15T05:31:55;3.72;;;2.60;;
57593;SDS011;43423;46.510;6.686;2023-04-15T05:34:21;5.32;;;2.90;;
57593;SDS011;43423;46.510;6.686;2023-04-15T05:36:47;5.93;;;2.50;;
57593;SDS011;43423;46.510;6.686;2023-04-15T05:39:12;5.75;;;2.20;;
57593;SDS011;43423;46.510;6.686;2023-04-15T05:41:38;3.97;;;1.92;;
57593;SDS011;43423;46.510;6.686;2023-04-15T05:44:03;3.03;;;1.92;;
57593;SDS011;43423;46.510;6.686;2023-04-15T05:46:29;4.32;;;2.00;;
57593;SDS011;43423;46.510;6.686;2023-04-15T05:48:55;5.25;;;1.98;;
57593;SDS011;43423;46.510;6.686;2023-04-15T05:51:20;3.38;;;2.15;;
57593;SDS011;43423;46.510;6.686;2023-04-15T05:53:46;5.63;;;2.33;;
57593;SDS011;43423;46.510;6.686;2023-04-15T05:56:11;2.53;;;2.10;;
57593;SDS011;43423;46.510;6.686;2023-04-15T05:58:37;5.50;;;2.15;;
57593;SDS011;43423;46.510;6.686;2023-04-15T06:01:02;4.43;;;1.90;;
57593;SDS011;43423;46.510;6.686;2023-04-15T06:03:28;3.30;;;2.15;;
57593;SDS011;43423;46.510;6.686;2023-04-15T06:05:54;4.47;;;2.13;;
57593;SDS011;43423;46.510;6.686;2023-04-15T06:08:20;4.40;;;2.63;;
57593;SDS011;43423;46.510;6.686;2023-04-15T06:10:46;3.83;;;2.75;;
57593;SDS011;43423;46.510;6.686;2023-04-15T06:13:11;4.97;;;1.98;;
57593;SDS011;43423;46.510;6.686;2023-04-15T06:15:37;4.28;;;2.10;;
57593;SDS011;43423;46.510;6.686;2023-04-15T06:18:03;2.80;;;1.77;;
57593;SDS011;43423;46.510;6.686;2023-04-15T06:20:28;5.30;;;2.05;;
57593;SDS011;43423;46.510;6.686;2023-04-15T06:22:54;2.88;;;1.63;;
57593;SDS011;43423;46.510;6.686;2023-04-15T06:25:19;5.20;;;2.42;;
57593;SDS011;43423;46.510;6.686;2023-04-15T06:27:45;2.67;;;1.70;;
57593;SDS011;43423;46.510;6.686;2023-04-15T06:30:10;3.75;;;1.73;;
57593;SDS011;43423;46.510;6.686;2023-04-15T06:32:36;4.25;;;1.90;;
57593;SDS011;43423;46.510;6.686;2023-04-15T06:35:02;3.05;;;1.90;;
57593;SDS011;43423;46.510;6.686;2023-04-15T06:37:28;2.38;;;1.60;;
57593;SDS011;43423;46.510;6.686;2023-04-15T06:39:53;3.17;;;1.73;;
57593;SDS011;43423;46.510;6.686;2023-04-15T06:42:19;3.85;;;1.95;;
57593;SDS011;43423;46.510;6.686;2023-04-15T06:44:45;2.25;;;1.85;;
57593;SDS011;43423;46.510;6.686;2023-04-15T06:47:10;3.70;;;1.40;;
57593;SDS011;43423;46.510;6.686;2023-04-15T06:49:38;3.70;;;2.13;;
57593;SDS011;43423;46.510;6.686;2023-04-15T06:52:04;2.67;;;1.60;;
57593;SDS011;43423;46.510;6.686;2023-04-15T06:54:30;6.53;;;1.75;;
57593;SDS011;43423;46.510;6.686;2023-04-15T06:56:56;6.15;;;2.10;;
57593;SDS011;43423;46.510;6.686;2023-04-15T06:59:21;3.08;;;1.90;;
57593;SDS011;43423;46.510;6.686;2023-04-15T07:01:47;7.05;;;2.13;;
57593;SDS011;43423;46.510;6.686;2023-04-15T07:04:12;4.38;;;1.85;;
57593;SDS011;43423;46.510;6.686;2023-04-15T07:06:38;5.35;;;2.28;;
57593;SDS011;43423;46.510;6.686;2023-04-15T07:09:03;3.45;;;2.25;;
57593;SDS011;43423;46.510;6.686;2023-04-15T07:11:29;7.38;;;2.13;;
57593;SDS011;43423;46.510;6.686;2023-04-15T07:13:56;5.45;;;1.77;;
57593;SDS011;43423;46.510;6.686;2023-04-15T07:16:22;10.48;;;2.35;;
57593;SDS011;43423;46.510;6.686;2023-04-15T07:18:48;3.35;;;1.42;;
57593;SDS011;43423;46.510;6.686;2023-04-15T07:21:13;3.80;;;1.50;;
57593;SDS011;43423;46.510;6.686;2023-04-15T07:23:39;3.22;;;1.50;;
57593;SDS011;43423;46.510;6.686;2023-04-15T07:26:04;3.35;;;1.83;;
57593;SDS011;43423;46.510;6.686;2023-04-15T07:28:30;7.55;;;1.60;;
57593;SDS011;43423;46.510;6.686;2023-04-15T07:30:56;5.15;;;1.05;;
57593;SDS011;43423;46.510;6.686;2023-04-15T07:33:21;4.43;;;1.20;;
57593;SDS011;43423;46.510;6.686;2023-04-15T07:35:47;3.85;;;1.90;;
57593;SDS011;43423;46.510;6.686;2023-04-15T07:38:13;5.70;;;2.25;;
57593;SDS011;43423;46.510;6.686;2023-04-15T07:40:38;2.20;;;1.92;;
57593;SDS011;43423;46.510;6.686;2023-04-15T07:43:04;3.75;;;1.90;;
57593;SDS011;43423;46.510;6.686;2023-04-15T07:45:30;4.60;;;1.92;;
57593;SDS011;43423;46.510;6.686;2023-04-15T07:47:56;2.97;;;1.60;;
57593;SDS011;43423;46.510;6.686;2023-04-15T07:50:22;4.45;;;1.88;;
57593;SDS011;43423;46.510;6.686;2023-04-15T07:52:48;2.95;;;1.73;;
57593;SDS011;43423;46.510;6.686;2023-04-15T07:55:16;3.50;;;1.90;;
57593;SDS011;43423;46.510;6.686;2023-04-15T07:57:44;4.07;;;1.48;;
57593;SDS011;43423;46.510;6.686;2023-04-15T08:00:11;2.75;;;1.73;;
57593;SDS011;43423;46.510;6.686;2023-04-15T08:02:37;3.38;;;1.63;;
57593;SDS011;43423;46.510;6.686;2023-04-15T08:05:03;4.03;;;1.65;;
57593;SDS011;43423;46.510;6.686;2023-04-15T08:07:29;3.65;;;1.80;;
57593;SDS011;43423;46.510;6.686;2023-04-15T08:09:55;5.28;;;2.10;;
57593;SDS011;43423;46.510;6.686;2023-04-15T08:12:21;8.23;;;4.68;;
57593;SDS011;43423;46.510;6.686;2023-04-15T08:14:46;18.95;;;8.05;;
57593;SDS011;43423;46.510;6.686;2023-04-15T08:17:12;19.42;;;7.85;;
57593;SDS011;43423;46.510;6.686;2023-04-15T08:19:38;10.00;;;5.45;;
57593;SDS011;43423;46.510;6.686;2023-04-15T08:22:04;7.13;;;3.83;;
57593;SDS011;43423;46.510;6.686;2023-04-15T08:24:30;7.03;;;3.80;;
57593;SDS011;43423;46.510;6.686;2023-04-15T08:26:56;4.60;;;2.00;;
57593;SDS011;43423;46.510;6.686;2023-04-15T08:29:22;1.67;;;1.38;;
57593;SDS011;43423;46.510;6.686;2023-04-15T08:31:47;15.50;;;8.15;;
57593;SDS011;43423;46.510;6.686;2023-04-15T08:34:13;3.63;;;1.90;;
57593;SDS011;43423;46.510;6.686;2023-04-15T08:36:39;2.85;;;1.77;;
57593;SDS011;43423;46.510;6.686;2023-04-15T08:39:04;1.35;;;1.00;;
57593;SDS011;43423;46.510;6.686;2023-04-15T08:41:44;3.95;;;1.30;;
57593;SDS011;43423;46.510;6.686;2023-04-15T08:44:14;5.03;;;4.15;;
57593;SDS011;43423;46.510;6.686;2023-04-15T08:46:40;4.05;;;0.95;;
57593;SDS011;43423;46.510;6.686;2023-04-15T08:49:10;1.58;;;0.85;;
57593;SDS011;43423;46.510;6.686;2023-04-15T08:51:39;1.65;;;0.90;;
57593;SDS011;43423;46.510;6.686;2023-04-15T08:54:06;1.50;;;0.90;;
57593;SDS011;43423;46.510;6.686;2023-04-15T08:56:32;1.20;;;1.10;;
57593;SDS011;43423;46.510;6.686;2023-04-15T08:58:59;1.55;;;0.60;;
57593;SDS011;43423;46.510;6.686;2023-04-15T09:01:24;1.00;;;1.00;;
57593;SDS011;43423;46.510;6.686;2023-04-15T09:03:51;1.30;;;1.05;;
57593;SDS011;43423;46.510;6.686;2023-04-15T09:06:19;1.00;;;0.80;;
57593;SDS011;43423;46.510;6.686;2023-04-15T09:08:46;1.05;;;0.40;;
57593;SDS011;43423;46.510;6.686;2023-04-15T09:11:12;1.17;;;0.70;;
57593;SDS011;43423;46.510;6.686;2023-04-15T09:13:38;1.70;;;1.02;;
57593;SDS011;43423;46.510;6.686;2023-04-15T09:16:04;1.08;;;0.82;;
57593;SDS011;43423;46.510;6.686;2023-04-15T09:18:31;2.00;;;1.70;;
57593;SDS011;43423;46.510;6.686;2023-04-15T09:21:05;3.60;;;1.20;;
57593;SDS011;43423;46.510;6.686;2023-04-15T09:23:33;1.15;;;0.57;;
57593;SDS011;43423;46.510;6.686;2023-04-15T09:26:00;1.75;;;0.65;;
57593;SDS011;43423;46.510;6.686;2023-04-15T09:28:27;1.17;;;0.38;;
57593;SDS011;43423;46.510;6.686;2023-04-15T09:30:59;1.38;;;0.50;;
57593;SDS011;43423;46.510;6.686;2023-04-15T09:33:26;0.77;;;0.40;;
57593;SDS011;43423;46.510;6.686;2023-04-15T09:36:00;0.38;;;0.20;;
57593;SDS011;43423;46.510;6.686;2023-04-15T09:38:27;2.45;;;0.40;;
57593;SDS011;43423;46.510;6.686;2023-04-15T09:40:53;0.35;;;0.35;;
57593;SDS011;43423;46.510;6.686;2023-04-15T09:43:19;1.88;;;0.63;;
57593;SDS011;43423;46.510;6.686;2023-04-15T09:45:51;0.77;;;0.73;;
57593;SDS011;43423;46.510;6.686;2023-04-15T09:48:18;1.02;;;0.60;;
57593;SDS011;43423;46.510;6.686;2023-04-15T09:50:46;1.05;;;0.60;;
57593;SDS011;43423;46.510;6.686;2023-04-15T09:53:19;2.97;;;0.80;;
57593;SDS011;43423;46.510;6.686;2023-04-15T09:55:48;0.70;;;0.60;;
57593;SDS011;43423;46.510;6.686;2023-04-15T09:58:18;1.00;;;0.65;;
57593;SDS011;43423;46.510;6.686;2023-04-15T10:00:46;0.82;;;0.70;;
57593;SDS011;43423;46.510;6.686;2023-04-15T10:03:20;1.08;;;0.55;;
57593;SDS011;43423;46.510;6.686;2023-04-15T10:05:47;0.90;;;0.57;;
57593;SDS011;43423;46.510;6.686;2023-04-15T10:08:18;1.98;;;0.50;;
57593;SDS011;43423;46.510;6.686;2023-04-15T10:10:46;1.45;;;0.75;;
57593;SDS011;43423;46.510;6.686;2023-04-15T10:13:17;1.00;;;0.50;;
57593;SDS011;43423;46.510;6.686;2023-04-15T10:15:44;1.80;;;0.63;;
57593;SDS011;43423;46.510;6.686;2023-04-15T10:18:14;1.05;;;0.70;;
57593;SDS011;43423;46.510;6.686;2023-04-15T10:20:45;1.60;;;0.57;;
57593;SDS011;43423;46.510;6.686;2023-04-15T10:23:11;3.60;;;0.68;;
57593;SDS011;43423;46.510;6.686;2023-04-15T10:25:37;1.55;;;0.47;;
57593;SDS011;43423;46.510;6.686;2023-04-15T10:28:05;2.53;;;0.50;;
57593;SDS011;43423;46.510;6.686;2023-04-15T10:30:31;0.25;;;0.25;;
57593;SDS011;43423;46.510;6.686;2023-04-15T10:32:58;1.35;;;0.30;;
57593;SDS011;43423;46.510;6.686;2023-04-15T10:35:26;0.98;;;0.32;;
57593;SDS011;43423;46.510;6.686;2023-04-15T10:37:53;0.40;;;0.40;;
57593;SDS011;43423;46.510;6.686;2023-04-15T10:40:29;1.83;;;0.35;;
57593;SDS011;43423;46.510;6.686;2023-04-15T10:42:57;1.85;;;0.20;;
57593;SDS011;43423;46.510;6.686;2023-04-15T10:45:26;0.45;;;0.22;;
57593;SDS011;43423;46.510;6.686;2023-04-15T10:47:54;0.93;;;0.45;;
57593;SDS011;43423;46.510;6.686;2023-04-15T10:50:20;0.98;;;0.50;;
57593;SDS011;43423;46.510;6.686;2023-04-15T10:52:48;0.45;;;0.30;;
57593;SDS011;43423;46.510;6.686;2023-04-15T10:55:19;0.43;;;0.30;;
57593;SDS011;43423;46.510;6.686;2023-04-15T10:57:51;0.60;;;0.43;;
57593;SDS011;43423;46.510;6.686;2023-04-15T11:00:27;0.30;;;0.30;;
57593;SDS011;43423;46.510;6.686;2023-04-15T11:02:55;1.63;;;0.70;;
57593;SDS011;43423;46.510;6.686;2023-04-15T11:08:03;1.05;;;0.20;;
57593;SDS011;43423;46.510;6.686;2023-04-15T11:12:58;0.55;;;0.20;;
57593;SDS011;43423;46.510;6.686;2023-04-15T11:15:32;0.52;;;0.38;;
57593;SDS011;43423;46.510;6.686;2023-04-15T11:20:37;0.47;;;0.20;;
57593;SDS011;43423;46.510;6.686;2023-04-15T11:23:03;2.10;;;0.90;;
57593;SDS011;43423;46.510;6.686;2023-04-15T11:25:31;2.75;;;1.08;;
57593;SDS011;43423;46.510;6.686;2023-04-15T11:27:58;1.08;;;0.70;;
57593;SDS011;43423;46.510;6.686;2023-04-15T11:30:25;1.52;;;0.90;;
57593;SDS011;43423;46.510;6.686;2023-04-15T11:32:59;0.40;;;0.40;;
57593;SDS011;43423;46.510;6.686;2023-04-15T11:35:27;1.63;;;0.50;;
57593;SDS011;43423;46.510;6.686;2023-04-15T11:37:53;1.15;;;0.50;;
57593;SDS011;43423;46.510;6.686;2023-04-15T11:40:23;0.40;;;0.40;;
57593;SDS011;43423;46.510;6.686;2023-04-15T11:43:22;1.08;;;0.40;;
57593;SDS011;43423;46.510;6.686;2023-04-15T11:45:57;0.55;;;0.38;;
57593;SDS011;43423;46.510;6.686;2023-04-15T11:56:16;0.45;;;0.45;;
57593;SDS011;43423;46.510;6.686;2023-04-15T11:58:46;2.05;;;0.65;;
57593;SDS011;43423;46.510;6.686;2023-04-15T12:01:12;0.43;;;0.40;;
57593;SDS011;43423;46.510;6.686;2023-04-15T12:03:39;0.85;;;0.57;;
57593;SDS011;43423;46.510;6.686;2023-04-15T12:11:38;2.55;;;0.65;;
57593;SDS011;43423;46.510;6.686;2023-04-15T12:19:25;0.30;;;0.30;;
57593;SDS011;43423;46.510;6.686;2023-04-15T12:21:56;0.40;;;0.40;;
57593;SDS011;43423;46.510;6.686;2023-04-15T12:24:24;0.40;;;0.20;;
57593;SDS011;43423;46.510;6.686;2023-04-15T12:26:51;0.40;;;0.40;;
57593;SDS011;43423;46.510;6.686;2023-04-15T12:29:18;0.40;;;0.20;;
57593;SDS011;43423;46.510;6.686;2023-04-15T12:31:54;0.28;;;0.28;;
57593;SDS011;43423;46.510;6.686;2023-04-15T12:34:31;0.30;;;0.20;;
57593;SDS011;43423;46.510;6.686;2023-04-15T12:36:58;0.15;;;0.13;;
57593;SDS011;43423;46.510;6.686;2023-04-15T12:39:39;0.60;;;0.20;;
57593;SDS011;43423;46.510;6.686;2023-04-15T12:42:06;0.25;;;0.25;;
57593;SDS011;43423;46.510;6.686;2023-04-15T12:44:33;0.20;;;0.20;;
57593;SDS011;43423;46.510;6.686;2023-04-15T12:46:59;0.65;;;0.20;;
57593;SDS011;43423;46.510;6.686;2023-04-15T12:49:25;1.48;;;0.20;;
57593;SDS011;43423;46.510;6.686;2023-04-15T12:51:52;0.15;;;0.13;;
57593;SDS011;43423;46.510;6.686;2023-04-15T12:54:19;0.38;;;0.20;;
57593;SDS011;43423;46.510;6.686;2023-04-15T12:56:45;0.20;;;0.20;;
57593;SDS011;43423;46.510;6.686;2023-04-15T12:59:13;0.45;;;0.38;;
57593;SDS011;43423;46.510;6.686;2023-04-15T13:01:39;0.25;;;0.22;;
57593;SDS011;43423;46.510;6.686;2023-04-15T13:04:05;0.40;;;0.30;;
57593;SDS011;43423;46.510;6.686;2023-04-15T13:06:31;0.38;;;0.20;;
57593;SDS011;43423;46.510;6.686;2023-04-15T13:08:58;0.75;;;0.20;;
57593;SDS011;43423;46.510;6.686;2023-04-15T13:11:24;0.90;;;0.30;;
57593;SDS011;43423;46.510;6.686;2023-04-15T13:13:50;0.88;;;0.20;;
57593;SDS011;43423;46.510;6.686;2023-04-15T13:16:17;0.10;;;0.10;;
57593;SDS011;43423;46.510;6.686;2023-04-15T13:18:43;0.30;;;0.30;;
57593;SDS011;43423;46.510;6.686;2023-04-15T13:21:10;0.20;;;0.20;;
57593;SDS011;43423;46.510;6.686;2023-04-15T13:23:36;0.30;;;0.30;;
57593;SDS011;43423;46.510;6.686;2023-04-15T13:26:02;0.20;;;0.20;;
57593;SDS011;43423;46.510;6.686;2023-04-15T13:28:28;0.20;;;0.15;;
57593;SDS011;43423;46.510;6.686;2023-04-15T13:30:53;1.35;;;0.15;;
57593;SDS011;43423;46.510;6.686;2023-04-15T13:33:19;0.38;;;0.30;;
57593;SDS011;43423;46.510;6.686;2023-04-15T13:35:45;1.60;;;0.50;;
57593;SDS011;43423;46.510;6.686;2023-04-15T13:38:11;0.60;;;0.30;;
57593;SDS011;43423;46.510;6.686;2023-04-15T13:40:36;0.52;;;0.20;;
57593;SDS011;43423;46.510;6.686;2023-04-15T13:43:02;0.40;;;0.20;;
57593;SDS011;43423;46.510;6.686;2023-04-15T13:45:28;0.55;;;0.43;;
57593;SDS011;43423;46.510;6.686;2023-04-15T13:47:54;0.52;;;0.43;;
57593;SDS011;43423;46.510;6.686;2023-04-15T13:50:21;0.30;;;0.30;;
57593;SDS011;43423;46.510;6.686;2023-04-15T13:52:46;0.30;;;0.30;;
57593;SDS011;43423;46.510;6.686;2023-04-15T13:55:12;0.73;;;0.38;;
57593;SDS011;43423;46.510;6.686;2023-04-15T13:57:37;0.77;;;0.60;;
57593;SDS011;43423;46.510;6.686;2023-04-15T14:00:03;0.40;;;0.40;;
57593;SDS011;43423;46.510;6.686;2023-04-15T14:02:30;0.60;;;0.60;;
57593;SDS011;43423;46.510;6.686;2023-04-15T14:04:55;0.85;;;0.80;;
57593;SDS011;43423;46.510;6.686;2023-04-15T14:07:21;2.38;;;0.90;;
57593;SDS011;43423;46.510;6.686;2023-04-15T14:09:47;0.93;;;0.73;;
57593;SDS011;43423;46.510;6.686;2023-04-15T14:12:12;2.47;;;0.57;;
57593;SDS011;43423;46.510;6.686;2023-04-15T14:14:39;1.40;;;0.93;;
57593;SDS011;43423;46.510;6.686;2023-04-15T14:17:05;1.27;;;0.90;;
57593;SDS011;43423;46.510;6.686;2023-04-15T14:19:31;1.55;;;0.88;;
57593;SDS011;43423;46.510;6.686;2023-04-15T14:21:57;0.68;;;0.68;;
57593;SDS011;43423;46.510;6.686;2023-04-15T14:24:23;0.98;;;0.63;;
57593;SDS011;43423;46.510;6.686;2023-04-15T14:26:49;1.00;;;0.60;;
57593;SDS011;43423;46.510;6.686;2023-04-15T14:29:14;0.40;;;0.40;;
57593;SDS011;43423;46.510;6.686;2023-04-15T14:31:41;0.85;;;0.52;;
57593;SDS011;43423;46.510;6.686;2023-04-15T14:34:06;1.05;;;0.40;;
57593;SDS011;43423;46.510;6.686;2023-04-15T14:36:32;0.60;;;0.45;;
57593;SDS011;43423;46.510;6.686;2023-04-15T14:38:57;0.80;;;0.50;;
57593;SDS011;43423;46.510;6.686;2023-04-15T14:41:23;0.40;;;0.40;;
57593;SDS011;43423;46.510;6.686;2023-04-15T14:43:48;0.77;;;0.57;;
57593;SDS011;43423;46.510;6.686;2023-04-15T14:46:14;1.60;;;0.82;;
57593;SDS011;43423;46.510;6.686;2023-04-15T14:48:40;1.60;;;0.77;;
57593;SDS011;43423;46.510;6.686;2023-04-15T14:51:06;2.85;;;1.00;;
57593;SDS011;43423;46.510;6.686;2023-04-15T14:53:32;1.05;;;0.73;;
57593;SDS011;43423;46.510;6.686;2023-04-15T14:55:57;2.55;;;1.35;;
57593;SDS011;43423;46.510;6.686;2023-04-15T14:58:23;1.60;;;1.20;;
57593;SDS011;43423;46.510;6.686;2023-04-15T15:00:49;1.55;;;1.20;;
57593;SDS011;43423;46.510;6.686;2023-04-15T15:03:15;0.52;;;0.52;;
57593;SDS011;43423;46.510;6.686;2023-04-15T15:05:41;0.63;;;0.63;;
57593;SDS011;43423;46.510;6.686;2023-04-15T15:08:08;2.97;;;2.35;;
57593;SDS011;43423;46.510;6.686;2023-04-15T15:10:34;4.18;;;2.13;;